sensor_id;sensor_type;location;lat;lon;timestamp;temperature;humidity
53045;DHT22;38930;52.766;6.884;2022-12-18T00:02:07;-3.70;99.90
53045;DHT22;38930;52.766;6.884;2022-12-18T00:04:32;-3.70;99.90
53045;DHT22;38930;52.766;6.884;2022-12-18T00:06:58;-3.10;99.90
53045;DHT22;38930;52.766;6.884;2022-12-18T00:09:24;-3.70;99.90
53045;DHT22;38930;52.766;6.884;2022-12-18T00:11:50;-3.80;99.90
53045;DHT22;38930;52.766;6.884;2022-12-18T00:14:15;-3.80;99.90
53045;DHT22;38930;52.766;6.884;2022-12-18T00:16:43;-3.80;99.90
53045;DHT22;38930;52.766;6.884;2022-12-18T00:19:10;-3.90;99.90
53045;DHT22;38930;52.766;6.884;2022-12-18T00:21:36;-4.40;99.90
53045;DHT22;38930;52.766;6.884;2022-12-18T00:24:01;-3.90;99.90
53045;DHT22;38930;52.766;6.884;2022-12-18T00:26:32;-2.60;99.90
53045;DHT22;38930;52.766;6.884;2022-12-18T00:29:06;-4.00;99.90
53045;DHT22;38930;52.766;6.884;2022-12-18T00:31:32;-4.00;99.90
53045;DHT22;38930;52.766;6.884;2022-12-18T00:33:58;-4.20;99.90
53045;DHT22;38930;52.766;6.884;2022-12-18T00:36:26;-4.10;99.90
53045;DHT22;38930;52.766;6.884;2022-12-18T00:38:53;-4.10;99.90
53045;DHT22;38930;52.766;6.884;2022-12-18T00:41:19;-4.50;99.90
53045;DHT22;38930;52.766;6.884;2022-12-18T00:44:05;-4.20;99.90
53045;DHT22;38930;52.766;6.884;2022-12-18T00:46:32;-4.30;99.90
53045;DHT22;38930;52.766;6.884;2022-12-18T00:48:58;-4.70;99.90
53045;DHT22;38930;52.766;6.884;2022-12-18T00:51:24;-4.30;99.90
53045;DHT22;38930;52.766;6.884;2022-12-18T00:53:50;-4.30;99.90
53045;DHT22;38930;52.766;6.884;2022-12-18T00:56:16;-3.40;99.90
53045;DHT22;38930;52.766;6.884;2022-12-18T00:58:41;-4.50;99.90
53045;DHT22;38930;52.766;6.884;2022-12-18T01:01:07;-4.40;99.90
53045;DHT22;38930;52.766;6.884;2022-12-18T01:03:33;-4.50;99.90
53045;DHT22;38930;52.766;6.884;2022-12-18T01:05:59;-4.90;99.90
53045;DHT22;38930;52.766;6.884;2022-12-18T01:08:25;-4.70;99.90
53045;DHT22;38930;52.766;6.884;2022-12-18T01:10:50;-4.70;99.90
53045;DHT22;38930;52.766;6.884;2022-12-18T01:13:16;-4.80;99.90
53045;DHT22;38930;52.766;6.884;2022-12-18T01:15:51;-4.80;99.90
53045;DHT22;38930;52.766;6.884;2022-12-18T01:18:17;-4.90;99.90
53045;DHT22;38930;52.766;6.884;2022-12-18T01:20:42;-4.90;99.90
53045;DHT22;38930;52.766;6.884;2022-12-18T01:23:08;-5.20;99.90
53045;DHT22;38930;52.766;6.884;2022-12-18T01:25:36;-5.00;99.90
53045;DHT22;38930;52.766;6.884;2022-12-18T01:28:02;-5.00;99.90
53045;DHT22;38930;52.766;6.884;2022-12-18T01:30:28;-5.00;99.90
53045;DHT22;38930;52.766;6.884;2022-12-18T01:32:54;-5.00;99.90
53045;DHT22;38930;52.766;6.884;2022-12-18T01:35:19;-5.00;99.90
53045;DHT22;38930;52.766;6.884;2022-12-18T01:37:45;-5.10;99.90
53045;DHT22;38930;52.766;6.884;2022-12-18T01:40:11;-5.70;99.90
53045;DHT22;38930;52.766;6.884;2022-12-18T01:42:37;-5.20;99.90
53045;DHT22;38930;52.766;6.884;2022-12-18T01:47:58;-5.20;99.90
53045;DHT22;38930;52.766;6.884;2022-12-18T01:50:27;-5.30;99.90
53045;DHT22;38930;52.766;6.884;2022-12-18T01:52:56;-5.40;99.90
53045;DHT22;38930;52.766;6.884;2022-12-18T01:55:25;-5.50;99.90
53045;DHT22;38930;52.766;6.884;2022-12-18T01:57:54;-5.40;99.90
53045;DHT22;38930;52.766;6.884;2022-12-18T02:00:22;-5.90;99.90
53045;DHT22;38930;52.766;6.884;2022-12-18T02:02:48;-5.50;99.90
53045;DHT22;38930;52.766;6.884;2022-12-18T02:05:17;-5.80;99.90
53045;DHT22;38930;52.766;6.884;2022-12-18T02:08:03;-3.80;99.90
53045;DHT22;38930;52.766;6.884;2022-12-18T02:10:48;-5.60;99.90
53045;DHT22;38930;52.766;6.884;2022-12-18T02:13:53;-5.60;99.90
53045;DHT22;38930;52.766;6.884;2022-12-18T02:16:41;-5.60;99.90
53045;DHT22;38930;52.766;6.884;2022-12-18T02:19:27;-5.70;99.90
53045;DHT22;38930;52.766;6.884;2022-12-18T02:27:50;-5.80;99.90
53045;DHT22;38930;52.766;6.884;2022-12-18T02:30:17;-6.50;99.90
53045;DHT22;38930;52.766;6.884;2022-12-18T02:32:48;-5.10;99.90
53045;DHT22;38930;52.766;6.884;2022-12-18T02:35:22;-6.50;99.90
53045;DHT22;38930;52.766;6.884;2022-12-18T02:37:49;-5.90;99.90
53045;DHT22;38930;52.766;6.884;2022-12-18T02:40:22;-6.20;99.90
53045;DHT22;38930;52.766;6.884;2022-12-18T02:42:49;-6.90;99.90
53045;DHT22;38930;52.766;6.884;2022-12-18T02:45:14;-6.20;99.90
53045;DHT22;38930;52.766;6.884;2022-12-18T02:47:42;-6.40;99.90
53045;DHT22;38930;52.766;6.884;2022-12-18T03:03:58;-7.50;99.90
53045;DHT22;38930;52.766;6.884;2022-12-18T03:06:29;-6.20;99.90
53045;DHT22;38930;52.766;6.884;2022-12-18T03:09:06;-6.30;99.90
53045;DHT22;38930;52.766;6.884;2022-12-18T03:11:34;-6.20;99.90
53045;DHT22;38930;52.766;6.884;2022-12-18T03:14:22;-5.40;99.90
53045;DHT22;38930;52.766;6.884;2022-12-18T03:16:54;-5.70;99.90
53045;DHT22;38930;52.766;6.884;2022-12-18T03:19:25;-6.30;99.90
53045;DHT22;38930;52.766;6.884;2022-12-18T03:21:56;-6.30;99.90
53045;DHT22;38930;52.766;6.884;2022-12-18T03:24:24;-6.40;99.90
53045;DHT22;38930;52.766;6.884;2022-12-18T03:26:54;-6.50;99.90
53045;DHT22;38930;52.766;6.884;2022-12-18T03:32:00;-6.30;99.90
53045;DHT22;38930;52.766;6.884;2022-12-18T03:34:30;-6.60;99.90
53045;DHT22;38930;52.766;6.884;2022-12-18T03:36:57;-6.60;99.90
53045;DHT22;38930;52.766;6.884;2022-12-18T03:39:23;-6.50;99.90
53045;DHT22;38930;52.766;6.884;2022-12-18T03:41:55;-6.50;99.90
53045;DHT22;38930;52.766;6.884;2022-12-18T03:50:03;-6.50;99.90
53045;DHT22;38930;52.766;6.884;2022-12-18T03:52:56;-6.50;99.90
53045;DHT22;38930;52.766;6.884;2022-12-18T03:55:24;-6.90;99.90
53045;DHT22;38930;52.766;6.884;2022-12-18T03:57:52;-5.60;99.90
53045;DHT22;38930;52.766;6.884;2022-12-18T04:00:19;-6.60;99.90
53045;DHT22;38930;52.766;6.884;2022-12-18T04:02:51;-6.50;99.90
53045;DHT22;38930;52.766;6.884;2022-12-18T04:05:19;-6.70;99.90
53045;DHT22;38930;52.766;6.884;2022-12-18T04:07:47;-6.60;99.90
53045;DHT22;38930;52.766;6.884;2022-12-18T04:10:17;-6.60;99.90
53045;DHT22;38930;52.766;6.884;2022-12-18T04:12:43;-6.70;99.90
53045;DHT22;38930;52.766;6.884;2022-12-18T04:15:09;-6.80;99.90
53045;DHT22;38930;52.766;6.884;2022-12-18T04:17:35;-6.50;99.90
53045;DHT22;38930;52.766;6.884;2022-12-18T04:20:01;-6.80;99.90
53045;DHT22;38930;52.766;6.884;2022-12-18T04:22:27;-6.70;99.90
53045;DHT22;38930;52.766;6.884;2022-12-18T04:24:52;-6.80;99.90
53045;DHT22;38930;52.766;6.884;2022-12-18T04:27:18;-7.10;99.90
53045;DHT22;38930;52.766;6.884;2022-12-18T04:29:44;-6.60;99.90
53045;DHT22;38930;52.766;6.884;2022-12-18T04:32:09;-6.80;99.90
53045;DHT22;38930;52.766;6.884;2022-12-18T04:34:35;-6.80;99.90
53045;DHT22;38930;52.766;6.884;2022-12-18T04:37:01;-6.90;99.90
53045;DHT22;38930;52.766;6.884;2022-12-18T04:39:26;-6.70;99.90
53045;DHT22;38930;52.766;6.884;2022-12-18T04:41:52;-6.90;99.90
53045;DHT22;38930;52.766;6.884;2022-12-18T04:44:18;-7.00;99.90
53045;DHT22;38930;52.766;6.884;2022-12-18T04:46:43;-6.80;99.90
53045;DHT22;38930;52.766;6.884;2022-12-18T04:49:09;-6.90;99.90
53045;DHT22;38930;52.766;6.884;2022-12-18T04:51:36;-6.60;99.90
53045;DHT22;38930;52.766;6.884;2022-12-18T04:54:01;-6.70;99.90
53045;DHT22;38930;52.766;6.884;2022-12-18T04:56:27;-6.70;99.90
53045;DHT22;38930;52.766;6.884;2022-12-18T04:58:53;-6.80;99.90
53045;DHT22;38930;52.766;6.884;2022-12-18T05:01:18;-6.70;99.90
53045;DHT22;38930;52.766;6.884;2022-12-18T05:03:44;-6.80;99.90
53045;DHT22;38930;52.766;6.884;2022-12-18T05:06:10;-7.00;99.90
53045;DHT22;38930;52.766;6.884;2022-12-18T05:08:36;-7.10;99.90
53045;DHT22;38930;52.766;6.884;2022-12-18T05:11:04;-6.80;99.90
53045;DHT22;38930;52.766;6.884;2022-12-18T05:13:30;-6.70;99.90
53045;DHT22;38930;52.766;6.884;2022-12-18T05:15:56;-7.30;99.90
53045;DHT22;38930;52.766;6.884;2022-12-18T05:18:23;-7.20;99.90
53045;DHT22;38930;52.766;6.884;2022-12-18T05:20:50;-7.30;99.90
53045;DHT22;38930;52.766;6.884;2022-12-18T05:23:16;-6.90;99.90
53045;DHT22;38930;52.766;6.884;2022-12-18T05:25:42;-7.20;99.90
53045;DHT22;38930;52.766;6.884;2022-12-18T05:28:07;-7.10;99.90
53045;DHT22;38930;52.766;6.884;2022-12-18T05:30:33;-7.10;99.90
53045;DHT22;38930;52.766;6.884;2022-12-18T05:32:59;-5.30;99.90
53045;DHT22;38930;52.766;6.884;2022-12-18T05:35:24;-7.10;99.90
53045;DHT22;38930;52.766;6.884;2022-12-18T05:37:50;-7.20;99.90
53045;DHT22;38930;52.766;6.884;2022-12-18T05:40:16;-7.40;99.90
53045;DHT22;38930;52.766;6.884;2022-12-18T05:42:41;-7.10;99.90
53045;DHT22;38930;52.766;6.884;2022-12-18T05:45:07;-7.50;99.90
53045;DHT22;38930;52.766;6.884;2022-12-18T05:47:33;-7.00;99.90
53045;DHT22;38930;52.766;6.884;2022-12-18T05:49:59;-7.20;99.90
53045;DHT22;38930;52.766;6.884;2022-12-18T05:52:24;-7.40;99.90
53045;DHT22;38930;52.766;6.884;2022-12-18T05:54:50;-7.30;99.90
53045;DHT22;38930;52.766;6.884;2022-12-18T05:57:16;-7.40;99.90
53045;DHT22;38930;52.766;6.884;2022-12-18T05:59:41;-7.20;99.90
53045;DHT22;38930;52.766;6.884;2022-12-18T06:02:07;-7.70;99.90
53045;DHT22;38930;52.766;6.884;2022-12-18T06:04:33;-7.20;99.90
53045;DHT22;38930;52.766;6.884;2022-12-18T06:06:58;-7.30;99.90
53045;DHT22;38930;52.766;6.884;2022-12-18T06:09:24;-7.40;99.90
53045;DHT22;38930;52.766;6.884;2022-12-18T06:11:52;-7.30;99.90
53045;DHT22;38930;52.766;6.884;2022-12-18T06:14:17;-7.30;99.90
53045;DHT22;38930;52.766;6.884;2022-12-18T06:16:43;-6.30;99.90
53045;DHT22;38930;52.766;6.884;2022-12-18T06:19:16;-7.40;99.90
53045;DHT22;38930;52.766;6.884;2022-12-18T06:21:41;-7.40;99.90
53045;DHT22;38930;52.766;6.884;2022-12-18T06:24:07;-7.80;99.90
53045;DHT22;38930;52.766;6.884;2022-12-18T06:26:33;-7.70;99.90
53045;DHT22;38930;52.766;6.884;2022-12-18T06:28:58;-7.60;99.90
53045;DHT22;38930;52.766;6.884;2022-12-18T06:31:25;-7.60;99.90
53045;DHT22;38930;52.766;6.884;2022-12-18T06:33:51;-7.30;99.90
53045;DHT22;38930;52.766;6.884;2022-12-18T06:36:17;-7.30;99.90
53045;DHT22;38930;52.766;6.884;2022-12-18T06:38:43;-7.40;99.90
53045;DHT22;38930;52.766;6.884;2022-12-18T06:41:17;-7.50;99.90
53045;DHT22;38930;52.766;6.884;2022-12-18T06:43:43;-7.40;99.90
53045;DHT22;38930;52.766;6.884;2022-12-18T06:46:10;-7.40;99.90
53045;DHT22;38930;52.766;6.884;2022-12-18T06:48:36;-7.80;99.90
53045;DHT22;38930;52.766;6.884;2022-12-18T06:51:03;-7.40;99.90
53045;DHT22;38930;52.766;6.884;2022-12-18T06:53:28;-7.40;99.90
53045;DHT22;38930;52.766;6.884;2022-12-18T06:56:06;-7.60;99.90
53045;DHT22;38930;52.766;6.884;2022-12-18T06:58:32;-7.40;99.90
53045;DHT22;38930;52.766;6.884;2022-12-18T07:01:06;-7.60;99.90
53045;DHT22;38930;52.766;6.884;2022-12-18T07:03:32;-7.20;99.90
53045;DHT22;38930;52.766;6.884;2022-12-18T07:05:58;-7.60;99.90
53045;DHT22;38930;52.766;6.884;2022-12-18T07:08:23;-7.50;99.90
53045;DHT22;38930;52.766;6.884;2022-12-18T07:10:49;-7.50;99.90
53045;DHT22;38930;52.766;6.884;2022-12-18T07:13:16;-7.50;99.90
53045;DHT22;38930;52.766;6.884;2022-12-18T07:15:42;-7.90;99.90
53045;DHT22;38930;52.766;6.884;2022-12-18T07:18:07;-7.40;99.90
53045;DHT22;38930;52.766;6.884;2022-12-18T07:20:33;-7.50;99.90
53045;DHT22;38930;52.766;6.884;2022-12-18T07:22:58;-7.60;99.90
53045;DHT22;38930;52.766;6.884;2022-12-18T07:25:26;-7.60;99.90
53045;DHT22;38930;52.766;6.884;2022-12-18T07:27:54;-7.50;99.90
53045;DHT22;38930;52.766;6.884;2022-12-18T07:30:19;-7.60;99.90
53045;DHT22;38930;52.766;6.884;2022-12-18T07:32:45;-7.50;99.90
53045;DHT22;38930;52.766;6.884;2022-12-18T07:35:10;-7.60;99.90
53045;DHT22;38930;52.766;6.884;2022-12-18T07:37:36;-7.50;99.90
53045;DHT22;38930;52.766;6.884;2022-12-18T07:40:02;-7.60;99.90
53045;DHT22;38930;52.766;6.884;2022-12-18T07:42:27;-7.50;99.90
53045;DHT22;38930;52.766;6.884;2022-12-18T07:44:56;-7.50;99.90
53045;DHT22;38930;52.766;6.884;2022-12-18T07:47:22;-7.50;99.90
53045;DHT22;38930;52.766;6.884;2022-12-18T07:49:48;-7.30;99.90
53045;DHT22;38930;52.766;6.884;2022-12-18T07:52:14;-7.60;99.90
53045;DHT22;38930;52.766;6.884;2022-12-18T07:54:39;-7.50;99.90
53045;DHT22;38930;52.766;6.884;2022-12-18T07:57:06;-7.20;99.90
53045;DHT22;38930;52.766;6.884;2022-12-18T07:59:31;-7.10;99.90
53045;DHT22;38930;52.766;6.884;2022-12-18T08:01:57;-6.40;99.90
53045;DHT22;38930;52.766;6.884;2022-12-18T08:04:24;-6.90;99.90
53045;DHT22;38930;52.766;6.884;2022-12-18T08:06:50;-6.80;99.90
53045;DHT22;38930;52.766;6.884;2022-12-18T08:09:15;-6.90;99.90
53045;DHT22;38930;52.766;6.884;2022-12-18T08:11:41;-6.80;99.90
53045;DHT22;38930;52.766;6.884;2022-12-18T08:14:07;-6.70;99.90
53045;DHT22;38930;52.766;6.884;2022-12-18T08:16:32;-6.80;99.90
53045;DHT22;38930;52.766;6.884;2022-12-18T08:18:58;-6.60;99.90
53045;DHT22;38930;52.766;6.884;2022-12-18T08:21:27;-6.60;99.90
53045;DHT22;38930;52.766;6.884;2022-12-18T08:23:54;-6.60;99.90
53045;DHT22;38930;52.766;6.884;2022-12-18T08:26:22;-6.60;99.90
53045;DHT22;38930;52.766;6.884;2022-12-18T08:28:48;-6.50;99.90
53045;DHT22;38930;52.766;6.884;2022-12-18T08:31:14;-6.30;99.90
53045;DHT22;38930;52.766;6.884;2022-12-18T08:33:40;-6.00;99.90
53045;DHT22;38930;52.766;6.884;2022-12-18T08:36:07;-6.20;99.90
53045;DHT22;38930;52.766;6.884;2022-12-18T08:38:33;-6.10;99.90
53045;DHT22;38930;52.766;6.884;2022-12-18T08:41:03;-6.00;99.90
53045;DHT22;38930;52.766;6.884;2022-12-18T08:43:29;-5.90;99.90
53045;DHT22;38930;52.766;6.884;2022-12-18T08:46:15;-5.90;99.90
53045;DHT22;38930;52.766;6.884;2022-12-18T08:48:40;-5.80;99.90
53045;DHT22;38930;52.766;6.884;2022-12-18T08:51:06;-5.80;99.90
53045;DHT22;38930;52.766;6.884;2022-12-18T08:53:32;-5.80;99.90
53045;DHT22;38930;52.766;6.884;2022-12-18T08:55:57;-5.70;99.90
53045;DHT22;38930;52.766;6.884;2022-12-18T08:58:23;-5.60;99.90
53045;DHT22;38930;52.766;6.884;2022-12-18T09:00:49;-5.60;99.90
53045;DHT22;38930;52.766;6.884;2022-12-18T09:03:16;-5.50;99.90
53045;DHT22;38930;52.766;6.884;2022-12-18T09:05:42;-5.90;99.90
53045;DHT22;38930;52.766;6.884;2022-12-18T09:08:08;-5.80;99.90
53045;DHT22;38930;52.766;6.884;2022-12-18T09:10:34;-4.30;99.90
53045;DHT22;38930;52.766;6.884;2022-12-18T09:13:06;-5.20;99.90
53045;DHT22;38930;52.766;6.884;2022-12-18T09:15:31;-5.10;99.90
53045;DHT22;38930;52.766;6.884;2022-12-18T09:17:57;-4.80;99.90
53045;DHT22;38930;52.766;6.884;2022-12-18T09:20:22;-5.00;99.90
53045;DHT22;38930;52.766;6.884;2022-12-18T09:22:48;-4.90;99.90
53045;DHT22;38930;52.766;6.884;2022-12-18T09:25:14;-4.20;99.90
53045;DHT22;38930;52.766;6.884;2022-12-18T09:27:39;-4.10;99.90
53045;DHT22;38930;52.766;6.884;2022-12-18T09:30:05;-4.70;99.90
53045;DHT22;38930;52.766;6.884;2022-12-18T09:32:31;-4.60;99.90
53045;DHT22;38930;52.766;6.884;2022-12-18T09:34:57;-4.50;99.90
53045;DHT22;38930;52.766;6.884;2022-12-18T09:37:22;-4.50;99.90
53045;DHT22;38930;52.766;6.884;2022-12-18T09:39:48;-4.40;99.90
53045;DHT22;38930;52.766;6.884;2022-12-18T09:42:20;-4.30;99.90
53045;DHT22;38930;52.766;6.884;2022-12-18T09:44:51;-4.20;99.90
53045;DHT22;38930;52.766;6.884;2022-12-18T09:49:58;-4.10;99.90
53045;DHT22;38930;52.766;6.884;2022-12-18T09:57:33;-3.90;99.90
53045;DHT22;38930;52.766;6.884;2022-12-18T10:00:08;-3.90;99.90
53045;DHT22;38930;52.766;6.884;2022-12-18T10:02:40;-3.80;99.90
53045;DHT22;38930;52.766;6.884;2022-12-18T10:05:10;-3.70;99.90
53045;DHT22;38930;52.766;6.884;2022-12-18T10:10:35;-3.50;99.90
53045;DHT22;38930;52.766;6.884;2022-12-18T10:13:09;-3.50;99.90
53045;DHT22;38930;52.766;6.884;2022-12-18T10:16:07;-3.50;99.90
53045;DHT22;38930;52.766;6.884;2022-12-18T10:21:11;-3.30;99.90
53045;DHT22;38930;52.766;6.884;2022-12-18T10:26:22;-3.30;99.90
53045;DHT22;38930;52.766;6.884;2022-12-18T10:28:48;-1.70;99.90
53045;DHT22;38930;52.766;6.884;2022-12-18T10:31:21;-2.90;99.90
53045;DHT22;38930;52.766;6.884;2022-12-18T10:33:47;-3.80;99.90
53045;DHT22;38930;52.766;6.884;2022-12-18T10:36:13;-3.20;99.90
53045;DHT22;38930;52.766;6.884;2022-12-18T10:38:39;-3.20;99.90
53045;DHT22;38930;52.766;6.884;2022-12-18T10:41:09;-2.50;99.90
53045;DHT22;38930;52.766;6.884;2022-12-18T10:44:12;-1.60;99.90
53045;DHT22;38930;52.766;6.884;2022-12-18T10:46:38;-2.80;99.90
53045;DHT22;38930;52.766;6.884;2022-12-18T10:49:04;-3.10;99.90
53045;DHT22;38930;52.766;6.884;2022-12-18T10:51:31;-3.20;99.90
53045;DHT22;38930;52.766;6.884;2022-12-18T10:54:07;-3.00;99.90
53045;DHT22;38930;52.766;6.884;2022-12-18T10:56:38;-2.90;99.90
53045;DHT22;38930;52.766;6.884;2022-12-18T10:59:06;-3.10;99.90
53045;DHT22;38930;52.766;6.884;2022-12-18T11:01:52;-2.80;99.90
53045;DHT22;38930;52.766;6.884;2022-12-18T11:06:54;-2.70;99.90
53045;DHT22;38930;52.766;6.884;2022-12-18T11:09:22;-2.60;99.90
53045;DHT22;38930;52.766;6.884;2022-12-18T11:11:59;-2.60;99.90
53045;DHT22;38930;52.766;6.884;2022-12-18T11:14:26;-1.70;99.90
53045;DHT22;38930;52.766;6.884;2022-12-18T11:16:53;-2.50;99.90
53045;DHT22;38930;52.766;6.884;2022-12-18T11:19:36;-2.70;99.90
53045;DHT22;38930;52.766;6.884;2022-12-18T11:22:25;-2.30;99.90
53045;DHT22;38930;52.766;6.884;2022-12-18T11:24:56;-2.30;99.90
53045;DHT22;38930;52.766;6.884;2022-12-18T11:27:22;-2.30;99.90
53045;DHT22;38930;52.766;6.884;2022-12-18T11:29:50;-2.20;99.90
53045;DHT22;38930;52.766;6.884;2022-12-18T11:32:38;-1.40;99.90
53045;DHT22;38930;52.766;6.884;2022-12-18T11:35:11;-2.20;99.90
53045;DHT22;38930;52.766;6.884;2022-12-18T11:37:41;-2.20;99.90
53045;DHT22;38930;52.766;6.884;2022-12-18T11:40:19;-2.20;99.90
53045;DHT22;38930;52.766;6.884;2022-12-18T11:42:57;-2.10;99.90
53045;DHT22;38930;52.766;6.884;2022-12-18T11:45:34;-2.00;99.90
53045;DHT22;38930;52.766;6.884;2022-12-18T11:48:18;-2.00;99.90
53045;DHT22;38930;52.766;6.884;2022-12-18T11:50:53;-1.90;99.90
53045;DHT22;38930;52.766;6.884;2022-12-18T11:53:20;-0.40;99.90
53045;DHT22;38930;52.766;6.884;2022-12-18T12:09:40;-1.80;99.90
53045;DHT22;38930;52.766;6.884;2022-12-18T12:12:48;-1.80;99.90
53045;DHT22;38930;52.766;6.884;2022-12-18T12:23:26;-1.60;99.90
53045;DHT22;38930;52.766;6.884;2022-12-18T12:26:14;-1.60;99.90
53045;DHT22;38930;52.766;6.884;2022-12-18T12:34:15;-1.50;99.90
53045;DHT22;38930;52.766;6.884;2022-12-18T12:39:44;-1.40;99.90
53045;DHT22;38930;52.766;6.884;2022-12-18T12:42:24;-1.40;99.90
53045;DHT22;38930;52.766;6.884;2022-12-18T12:45:13;-1.40;99.90
53045;DHT22;38930;52.766;6.884;2022-12-18T12:47:42;-0.80;99.90
53045;DHT22;38930;52.766;6.884;2022-12-18T12:50:18;-1.40;99.90
53045;DHT22;38930;52.766;6.884;2022-12-18T12:52:47;-1.40;99.90
53045;DHT22;38930;52.766;6.884;2022-12-18T12:55:26;-0.60;99.90
53045;DHT22;38930;52.766;6.884;2022-12-18T12:57:58;-1.20;99.90
53045;DHT22;38930;52.766;6.884;2022-12-18T13:00:29;-1.40;99.90
53045;DHT22;38930;52.766;6.884;2022-12-18T13:05:57;-1.40;99.90
53045;DHT22;38930;52.766;6.884;2022-12-18T13:08:32;-1.40;99.90
53045;DHT22;38930;52.766;6.884;2022-12-18T13:10:59;-1.40;99.90
53045;DHT22;38930;52.766;6.884;2022-12-18T13:13:55;-1.40;99.90
53045;DHT22;38930;52.766;6.884;2022-12-18T13:16:23;-1.40;99.90
53045;DHT22;38930;52.766;6.884;2022-12-18T13:18:51;-1.40;99.90
53045;DHT22;38930;52.766;6.884;2022-12-18T13:21:44;-1.40;99.90
53045;DHT22;38930;52.766;6.884;2022-12-18T13:24:25;-1.40;99.90
53045;DHT22;38930;52.766;6.884;2022-12-18T13:26:52;-1.20;99.90
53045;DHT22;38930;52.766;6.884;2022-12-18T13:29:44;-1.40;99.90
53045;DHT22;38930;52.766;6.884;2022-12-18T13:32:25;-1.40;99.90
53045;DHT22;38930;52.766;6.884;2022-12-18T13:37:53;-1.40;99.90
53045;DHT22;38930;52.766;6.884;2022-12-18T13:48:27;-1.40;99.90
53045;DHT22;38930;52.766;6.884;2022-12-18T13:50:55;-0.50;99.90
53045;DHT22;38930;52.766;6.884;2022-12-18T13:53:28;-1.40;99.90
53045;DHT22;38930;52.766;6.884;2022-12-18T13:55:55;-1.40;99.90
53045;DHT22;38930;52.766;6.884;2022-12-18T13:58:21;-1.00;99.90
53045;DHT22;38930;52.766;6.884;2022-12-18T14:00:47;-1.40;99.90
53045;DHT22;38930;52.766;6.884;2022-12-18T14:03:27;-1.30;99.90
53045;DHT22;38930;52.766;6.884;2022-12-18T14:06:05;-1.40;99.90
53045;DHT22;38930;52.766;6.884;2022-12-18T14:08:36;-1.40;99.90
53045;DHT22;38930;52.766;6.884;2022-12-18T14:11:03;-1.50;99.90
53045;DHT22;38930;52.766;6.884;2022-12-18T14:13:31;-0.70;99.90
53045;DHT22;38930;52.766;6.884;2022-12-18T14:15:58;-1.50;99.90
53045;DHT22;38930;52.766;6.884;2022-12-18T14:18:31;-1.50;99.90
53045;DHT22;38930;52.766;6.884;2022-12-18T14:21:00;-1.60;99.90
53045;DHT22;38930;52.766;6.884;2022-12-18T14:23:37;-1.60;99.90
53045;DHT22;38930;52.766;6.884;2022-12-18T14:26:23;-1.60;99.90
53045;DHT22;38930;52.766;6.884;2022-12-18T14:28:49;-1.60;99.90
53045;DHT22;38930;52.766;6.884;2022-12-18T14:31:20;-1.70;99.90
53045;DHT22;38930;52.766;6.884;2022-12-18T14:33:46;-1.70;99.90
53045;DHT22;38930;52.766;6.884;2022-12-18T14:36:19;-1.70;99.90
53045;DHT22;38930;52.766;6.884;2022-12-18T14:38:51;-1.70;99.90
53045;DHT22;38930;52.766;6.884;2022-12-18T14:41:19;-1.70;99.90
53045;DHT22;38930;52.766;6.884;2022-12-18T14:43:51;-1.80;99.90
53045;DHT22;38930;52.766;6.884;2022-12-18T14:48:59;-1.80;99.90
53045;DHT22;38930;52.766;6.884;2022-12-18T14:51:27;-1.80;99.90
53045;DHT22;38930;52.766;6.884;2022-12-18T14:54:02;-1.80;99.90
53045;DHT22;38930;52.766;6.884;2022-12-18T14:56:32;-1.80;99.90
53045;DHT22;38930;52.766;6.884;2022-12-18T15:01:35;-1.90;99.90
53045;DHT22;38930;52.766;6.884;2022-12-18T15:04:03;-1.90;99.90
53045;DHT22;38930;52.766;6.884;2022-12-18T15:06:30;-1.80;99.90
53045;DHT22;38930;52.766;6.884;2022-12-18T15:09:02;-1.90;99.90
53045;DHT22;38930;52.766;6.884;2022-12-18T15:14:32;-1.90;99.90
53045;DHT22;38930;52.766;6.884;2022-12-18T15:17:02;-1.90;99.90
53045;DHT22;38930;52.766;6.884;2022-12-18T15:19:36;-1.90;99.90
53045;DHT22;38930;52.766;6.884;2022-12-18T15:22:02;-1.90;99.90
53045;DHT22;38930;52.766;6.884;2022-12-18T15:24:31;-1.90;99.90
53045;DHT22;38930;52.766;6.884;2022-12-18T15:26:58;-1.90;99.90
53045;DHT22;38930;52.766;6.884;2022-12-18T15:29:24;-1.90;99.90
53045;DHT22;38930;52.766;6.884;2022-12-18T15:32:05;-1.90;99.90
53045;DHT22;38930;52.766;6.884;2022-12-18T15:34:32;-1.90;99.90
53045;DHT22;38930;52.766;6.884;2022-12-18T15:36:59;-1.90;99.90
53045;DHT22;38930;52.766;6.884;2022-12-18T15:39:25;-1.50;99.90
53045;DHT22;38930;52.766;6.884;2022-12-18T15:41:51;-1.90;99.90
53045;DHT22;38930;52.766;6.884;2022-12-18T15:44:35;-1.90;99.90
53045;DHT22;38930;52.766;6.884;2022-12-18T15:47:01;-1.90;99.90
53045;DHT22;38930;52.766;6.884;2022-12-18T15:49:27;-1.80;99.90
53045;DHT22;38930;52.766;6.884;2022-12-18T15:51:56;-1.90;99.90
53045;DHT22;38930;52.766;6.884;2022-12-18T15:54:23;-1.90;99.90
53045;DHT22;38930;52.766;6.884;2022-12-18T15:57:12;-1.90;99.90
53045;DHT22;38930;52.766;6.884;2022-12-18T15:59:54;-1.30;99.90
53045;DHT22;38930;52.766;6.884;2022-12-18T16:02:23;-1.50;99.90
53045;DHT22;38930;52.766;6.884;2022-12-18T16:04:51;-1.90;99.90
53045;DHT22;38930;52.766;6.884;2022-12-18T16:07:18;-1.80;99.90
53045;DHT22;38930;52.766;6.884;2022-12-18T16:09:43;-1.80;99.90
53045;DHT22;38930;52.766;6.884;2022-12-18T16:12:20;-1.80;99.90
53045;DHT22;38930;52.766;6.884;2022-12-18T16:14:46;-1.80;99.90
53045;DHT22;38930;52.766;6.884;2022-12-18T16:17:13;-1.80;99.90
53045;DHT22;38930;52.766;6.884;2022-12-18T16:19:39;-1.40;99.90
53045;DHT22;38930;52.766;6.884;2022-12-18T16:22:16;-1.80;99.90
53045;DHT22;38930;52.766;6.884;2022-12-18T16:24:42;-1.80;99.90
53045;DHT22;38930;52.766;6.884;2022-12-18T16:27:08;-1.80;99.90
53045;DHT22;38930;52.766;6.884;2022-12-18T16:29:34;-0.50;99.90
53045;DHT22;38930;52.766;6.884;2022-12-18T16:32:00;-1.80;99.90
53045;DHT22;38930;52.766;6.884;2022-12-18T16:36:54;-1.80;99.90
53045;DHT22;38930;52.766;6.884;2022-12-18T16:39:20;-1.80;99.90
53045;DHT22;38930;52.766;6.884;2022-12-18T16:41:46;-1.80;99.90
53045;DHT22;38930;52.766;6.884;2022-12-18T16:44:13;-1.80;99.90
53045;DHT22;38930;52.766;6.884;2022-12-18T16:46:40;-1.80;99.90
53045;DHT22;38930;52.766;6.884;2022-12-18T16:49:09;-1.80;99.90
53045;DHT22;38930;52.766;6.884;2022-12-18T16:51:35;-1.80;99.90
53045;DHT22;38930;52.766;6.884;2022-12-18T16:54:01;-1.80;99.90
53045;DHT22;38930;52.766;6.884;2022-12-18T16:56:27;-1.30;99.90
53045;DHT22;38930;52.766;6.884;2022-12-18T16:58:54;-1.70;99.90
53045;DHT22;38930;52.766;6.884;2022-12-18T17:01:20;-1.00;99.90
53045;DHT22;38930;52.766;6.884;2022-12-18T17:03:53;-1.70;99.90
53045;DHT22;38930;52.766;6.884;2022-12-18T17:06:23;-1.70;99.90
53045;DHT22;38930;52.766;6.884;2022-12-18T17:09:00;-1.70;99.90
53045;DHT22;38930;52.766;6.884;2022-12-18T17:11:28;-1.70;99.90
53045;DHT22;38930;52.766;6.884;2022-12-18T17:13:54;-1.70;99.90
53045;DHT22;38930;52.766;6.884;2022-12-18T17:16:20;-1.70;99.90
53045;DHT22;38930;52.766;6.884;2022-12-18T17:18:46;-1.80;99.90
53045;DHT22;38930;52.766;6.884;2022-12-18T17:21:13;-0.80;99.90
53045;DHT22;38930;52.766;6.884;2022-12-18T17:23:40;-1.60;99.90
53045;DHT22;38930;52.766;6.884;2022-12-18T17:26:06;-1.60;99.90
53045;DHT22;38930;52.766;6.884;2022-12-18T17:28:34;-1.70;99.90